createdAt,value
2018-11-20T00:01:29.481Z,2.08
2018-11-20T00:04:37.968Z,1.83
2018-11-20T00:07:32.438Z,2.06
2018-11-20T00:10:40.907Z,2.06
2018-11-20T00:13:44.771Z,1.99
2018-11-20T00:19:50.193Z,1.97
2018-11-20T00:22:51.404Z,2.03
2018-11-20T00:28:57.161Z,2.06
2018-11-20T00:32:04.326Z,1.99
2018-11-20T00:35:12.821Z,1.98
2018-11-20T00:38:13.742Z,1.78
2018-11-20T00:41:22.218Z,1.97
2018-11-20T00:44:23.510Z,1.90
2018-11-20T00:47:25.017Z,1.64
2018-11-20T00:50:33.534Z,1.97
2018-11-20T00:53:34.845Z,1.72
2018-11-20T00:57:02.370Z,1.89
2018-11-20T00:59:51.499Z,1.73
2018-11-20T01:02:41.155Z,1.71
2018-11-20T01:05:30.692Z,1.81
2018-11-20T01:08:35.103Z,1.82
2018-11-20T01:11:43.606Z,1.92
2018-11-20T01:14:52.092Z,1.81
2018-11-20T01:17:32.505Z,1.68
2018-11-20T01:20:41.022Z,1.86
2018-11-20T01:23:49.523Z,1.84
2018-11-20T01:26:32.137Z,1.81
2018-11-20T01:29:34.294Z,1.83
2018-11-20T01:38:39.742Z,1.74
2018-11-20T01:41:39.004Z,1.80
2018-11-20T01:44:33.554Z,1.76
2018-11-20T01:47:23.054Z,1.70
2018-11-20T01:50:31.537Z,1.73
2018-11-20T01:56:34.060Z,1.79
2018-11-20T01:59:35.499Z,1.71
2018-11-20T02:02:27.707Z,1.73
2018-11-20T02:05:33.213Z,1.72
2018-11-20T02:08:41.715Z,1.57
2018-11-20T02:11:39.119Z,1.68
2018-11-20T02:14:42.006Z,1.70
2018-11-20T02:17:31.014Z,1.69
2018-11-20T02:23:31.201Z,1.67
2018-11-20T02:29:47.419Z,1.69
2018-11-20T02:32:32.282Z,1.69
2018-11-20T02:35:40.794Z,1.64
2018-11-20T02:38:41.623Z,1.72
2018-11-20T02:41:40.517Z,1.66
2018-11-20T02:44:42.087Z,1.60
2018-11-20T02:53:36.306Z,1.59
2018-11-20T02:56:25.764Z,1.66
2018-11-20T03:05:36.655Z,1.51
2018-11-20T03:08:37.335Z,1.61
2018-11-20T03:11:45.815Z,1.60
2018-11-20T03:14:41.109Z,1.66
2018-11-20T03:17:49.598Z,1.61
2018-11-20T03:20:39.069Z,1.56
2018-11-20T03:23:47.535Z,1.68
2018-11-20T03:26:26.870Z,1.59
2018-11-20T03:30:16.125Z,1.64
2018-11-20T03:33:22.852Z,1.23
2018-11-20T03:36:31.348Z,1.64
2018-11-20T03:39:32.475Z,1.62
2018-11-20T03:42:21.968Z,1.61
2018-11-20T03:45:30.448Z,1.52
2018-11-20T03:48:31.492Z,1.39
2018-11-20T03:51:39.966Z,1.22
2018-11-20T03:54:33.457Z,1.54
2018-11-20T03:57:34.019Z,1.59
2018-11-20T04:00:16.727Z,1.48
2018-11-20T04:03:25.280Z,1.53
2018-11-20T04:06:33.774Z,1.53
2018-11-20T04:09:35.197Z,1.51
2018-11-20T04:12:25.320Z,1.53
2018-11-20T04:15:33.812Z,1.47
2018-11-20T04:18:32.200Z,1.54
2018-11-20T04:21:32.909Z,1.43
2018-11-20T04:24:33.919Z,1.47
2018-11-20T04:27:42.409Z,1.43
2018-11-20T04:31:15.984Z,1.42
2018-11-20T04:34:15.206Z,1.47
2018-11-20T04:37:01.646Z,1.21
2018-11-20T04:43:00.504Z,1.44
2018-11-20T04:46:08.970Z,1.52
2018-11-20T04:49:09.813Z,1.43
2018-11-20T04:51:46.796Z,1.43
2018-11-20T04:54:55.262Z,1.48
2018-11-20T04:58:03.784Z,1.43
2018-11-20T05:01:05.069Z,1.32
2018-11-20T05:04:13.550Z,1.49
2018-11-20T05:07:03.076Z,1.44
2018-11-20T05:09:49.441Z,1.47
2018-11-20T05:12:57.940Z,1.42
2018-11-20T05:15:39.995Z,1.49
2018-11-20T05:18:47.868Z,1.49
2018-11-20T05:21:37.343Z,1.45
2018-11-20T05:24:29.165Z,1.47
2018-11-20T05:27:26.505Z,1.48
2018-11-20T05:30:17.402Z,1.47
2018-11-20T05:33:25.899Z,1.42
2018-11-20T05:36:27.303Z,1.57
2018-11-20T05:39:08.620Z,1.55
2018-11-20T05:41:54.382Z,1.52
2018-11-20T05:45:02.900Z,1.47
2018-11-20T05:47:52.395Z,1.45
2018-11-20T05:51:00.913Z,1.51
2018-11-20T05:54:09.432Z,1.58
2018-11-20T05:56:58.514Z,1.56
2018-11-20T06:03:02.368Z,1.53
2018-11-20T06:05:58.241Z,1.54
2018-11-20T06:08:47.729Z,1.56
2018-11-20T06:11:56.226Z,1.59
2018-11-20T06:14:57.608Z,1.67
2018-11-20T06:17:49.778Z,1.64
2018-11-20T06:20:58.284Z,1.63
2018-11-20T06:23:47.778Z,1.36
2018-11-20T06:26:35.620Z,1.63
2018-11-20T06:29:31.227Z,1.61
2018-11-20T06:32:23.624Z,1.67
2018-11-20T06:35:13.142Z,1.64
2018-11-20T06:38:02.630Z,1.60
2018-11-20T06:40:52.294Z,1.62
2018-11-20T06:43:41.773Z,1.80
2018-11-20T06:46:49.473Z,1.60
2018-11-20T06:49:58.008Z,1.64
2018-11-20T06:52:59.493Z,1.69
2018-11-20T06:58:33.976Z,1.71
2018-11-20T07:04:28.409Z,1.91
2018-11-20T07:07:18.391Z,1.79
2018-11-20T07:10:27.074Z,1.77
2018-11-20T07:13:31.099Z,1.85
2018-11-20T07:16:59.514Z,1.86
2018-11-20T07:19:57.819Z,1.82
2018-11-20T07:22:47.402Z,1.86
2018-11-20T07:28:35.122Z,1.91
2018-11-20T07:31:29.533Z,1.88
2018-11-20T07:37:37.632Z,1.94
2018-11-20T07:40:28.400Z,1.95
2018-11-20T07:43:17.946Z,1.95
2018-11-20T07:46:07.406Z,1.90
2018-11-20T07:49:15.862Z,1.99
2018-11-20T07:52:17.995Z,2.11
2018-11-20T07:55:06.130Z,2.15
2018-11-20T07:57:57.676Z,2.08
2018-11-20T08:00:45.779Z,2.09
2018-11-20T08:03:35.254Z,2.14
2018-11-20T08:06:39.929Z,2.07
2018-11-20T08:09:48.519Z,2.17
2018-11-20T08:12:57.008Z,2.12
2018-11-20T08:15:46.584Z,1.78
2018-11-20T08:21:31.471Z,2.03
2018-11-20T08:24:39.971Z,2.04
2018-11-20T08:27:38.017Z,1.83
2018-11-20T08:30:46.485Z,2.06
2018-11-20T08:33:50.950Z,1.83
2018-11-20T08:36:37.391Z,2.09
2018-11-20T08:39:27.439Z,2.03
2018-11-20T08:42:14.657Z,1.95
2018-11-20T08:45:04.031Z,2.12
2018-11-20T08:47:52.354Z,2.09
2018-11-20T08:51:00.096Z,2.25
2018-11-20T08:53:52.553Z,2.38
2018-11-20T08:56:42.072Z,2.29
2018-11-20T08:59:31.562Z,2.33
2018-11-20T09:02:40.088Z,2.17
2018-11-20T09:05:36.324Z,2.41
2018-11-20T09:08:16.699Z,2.39
2018-11-20T09:11:06.218Z,2.38
2018-11-20T09:13:50.116Z,2.71
2018-11-20T09:16:39.565Z,2.52
2018-11-20T09:19:27.431Z,2.58
2018-11-20T09:22:17.022Z,2.46
2018-11-20T09:25:25.509Z,2.59
2018-11-20T09:28:11.227Z,2.52
2018-11-20T09:31:22.530Z,2.59
2018-11-20T09:34:10.804Z,2.75
2018-11-20T09:36:48.347Z,2.78
2018-11-20T09:39:25.228Z,2.77
2018-11-20T09:42:21.525Z,2.76
2018-11-20T09:45:54.983Z,2.79
2018-11-20T09:48:45.591Z,2.74
2018-11-20T09:51:40.321Z,3.14
2018-11-20T09:54:29.904Z,3.09
2018-11-20T09:57:13.934Z,3.13
2018-11-20T10:00:18.636Z,3.28
2018-11-20T10:03:17.715Z,3.24
2018-11-20T10:06:19.218Z,3.39
2018-11-20T10:09:29.346Z,3.37
2018-11-20T10:12:26.304Z,3.63
2018-11-20T10:15:34.791Z,3.56
2018-11-20T10:18:35.697Z,3.65
2018-11-20T10:21:44.272Z,3.55
2018-11-20T10:24:45.306Z,3.47
2018-11-20T10:27:53.747Z,3.52
2018-11-20T10:30:54.434Z,3.64
2018-11-20T10:34:02.960Z,3.52
2018-11-20T10:37:04.391Z,3.76
2018-11-20T10:40:13.022Z,3.75
2018-11-20T10:43:21.471Z,3.67
2018-11-20T10:46:28.736Z,3.40
2018-11-20T10:49:37.222Z,3.60
2018-11-20T10:52:38.953Z,3.91
2018-11-20T10:55:30.407Z,3.74
2018-11-20T10:58:38.911Z,3.57
2018-11-20T11:01:47.435Z,3.80
2018-11-20T11:04:48.079Z,4.00
2018-11-20T11:07:56.675Z,4.03
2018-11-20T11:10:57.774Z,3.99
2018-11-20T11:14:06.265Z,3.98
2018-11-20T11:17:10.385Z,3.85
2018-11-20T11:20:18.891Z,3.98
2018-11-20T11:23:12.169Z,4.08
2018-11-20T11:26:20.752Z,3.74
2018-11-20T11:29:27.943Z,4.27
2018-11-20T11:32:17.429Z,4.24
2018-11-20T11:35:18.232Z,4.27
2018-11-20T11:38:15.895Z,4.40
2018-11-20T11:41:24.512Z,4.40
2018-11-20T11:44:25.226Z,4.44
2018-11-20T11:47:33.797Z,4.37
2018-11-20T11:50:42.377Z,4.36
2018-11-20T11:53:38.058Z,4.39
2018-11-20T11:56:39.422Z,4.29
2018-11-20T11:59:47.917Z,4.49
2018-11-20T12:05:48.618Z,4.36
2018-11-20T12:08:49.859Z,4.49
2018-11-20T12:11:58.363Z,4.26
2018-11-20T12:14:59.437Z,4.61
2018-11-20T12:17:48.922Z,4.52
2018-11-20T12:20:57.448Z,4.76
2018-11-20T12:23:46.968Z,4.75
2018-11-20T12:26:55.491Z,4.62
2018-11-20T12:29:53.363Z,4.33
2018-11-20T12:33:02.368Z,4.96
2018-11-20T12:36:03.207Z,5.03
2018-11-20T12:39:07.702Z,4.73
2018-11-20T12:42:08.044Z,4.89
2018-11-20T12:45:07.743Z,5.13
2018-11-20T12:48:08.957Z,5.23
2018-11-20T12:51:19.736Z,5.06
2018-11-20T12:54:07.935Z,5.08
2018-11-20T12:56:56.135Z,5.38
2018-11-20T12:59:44.257Z,5.37
2018-11-20T13:02:43.420Z,4.98
2018-11-20T13:05:31.565Z,5.13
2018-11-20T13:08:31.037Z,5.18
2018-11-20T13:11:11.755Z,5.24
2018-11-20T13:13:59.583Z,5.20
2018-11-20T13:16:58.268Z,5.24
2018-11-20T13:19:46.270Z,5.35
2018-11-20T13:22:35.673Z,5.16
2018-11-20T13:25:22.363Z,5.30
2018-11-20T13:28:10.510Z,5.22
2018-11-20T13:30:58.713Z,5.31
2018-11-20T13:33:51.128Z,5.14
2018-11-20T13:36:38.899Z,5.25
2018-11-20T13:39:30.308Z,5.31
2018-11-20T13:42:43.392Z,5.39
2018-11-20T13:45:27.548Z,5.26
2018-11-20T13:48:15.771Z,5.12
2018-11-20T13:51:05.300Z,5.24
2018-11-20T13:54:00.592Z,5.05
2018-11-20T13:56:52.905Z,5.20
2018-11-20T13:59:42.415Z,5.21
2018-11-20T14:02:26.588Z,5.19
2018-11-20T14:05:16.180Z,5.12
2018-11-20T14:08:21.765Z,4.98
2018-11-20T14:11:02.717Z,5.02
2018-11-20T14:13:41.847Z,4.88
2018-11-20T14:16:37.152Z,4.92
2018-11-20T14:19:22.370Z,4.93
2018-11-20T14:21:59.056Z,4.91
2018-11-20T14:24:46.934Z,4.88
2018-11-20T14:27:34.481Z,4.83
2018-11-20T14:30:23.721Z,4.90
2018-11-20T14:33:12.904Z,4.95
2018-11-20T14:36:08.224Z,4.95
2018-11-20T14:38:57.777Z,4.94
2018-11-20T14:41:45.758Z,4.82
2018-11-20T14:44:33.921Z,4.81
2018-11-20T14:47:15.902Z,4.79
2018-11-20T14:50:02.602Z,4.81
2018-11-20T14:52:55.141Z,4.81
2018-11-20T14:55:41.615Z,4.80
2018-11-20T14:58:17.509Z,4.72
2018-11-20T15:01:09.298Z,4.72
2018-11-20T15:04:16.824Z,4.78
2018-11-20T15:06:54.739Z,4.68
2018-11-20T15:09:35.085Z,4.66
2018-11-20T15:12:22.997Z,4.59
2018-11-20T15:15:11.036Z,4.45
2018-11-20T15:17:59.408Z,4.29
2018-11-20T15:20:54.081Z,4.24
2018-11-20T15:23:46.415Z,4.10
2018-11-20T15:26:34.491Z,3.97
2018-11-20T15:29:13.577Z,3.91
2018-11-20T15:32:01.589Z,3.84
2018-11-20T15:34:46.091Z,3.78
2018-11-20T15:37:29.130Z,3.68
2018-11-20T15:40:20.830Z,3.61
2018-11-20T15:43:00.419Z,3.57
2018-11-20T15:45:51.135Z,3.57
2018-11-20T15:48:52.319Z,3.51
2018-11-20T15:51:46.244Z,3.28
2018-11-20T15:54:34.342Z,3.23
2018-11-20T15:57:22.261Z,3.15
2018-11-20T16:00:06.293Z,3.23
2018-11-20T16:02:54.155Z,3.09
2018-11-20T16:05:42.428Z,3.10
2018-11-20T16:08:34.809Z,3.17
2018-11-20T16:11:26.053Z,3.15
2018-11-20T16:14:14.575Z,3.03
2018-11-20T16:17:16.533Z,3.04
2018-11-20T16:19:50.692Z,2.93
2018-11-20T16:22:38.848Z,2.98
2018-11-20T16:25:30.722Z,3.05
2018-11-20T16:28:22.396Z,2.98
2018-11-20T16:31:30.047Z,2.82
2018-11-20T16:34:18.237Z,2.68
2018-11-20T16:37:16.807Z,2.53
2018-11-20T16:40:10.649Z,2.32
2018-11-20T16:42:58.699Z,2.60
2018-11-20T16:46:00.482Z,2.47
2018-11-20T16:49:05.338Z,2.46
2018-11-20T16:51:53.252Z,2.41
2018-11-20T16:54:48.115Z,2.27
2018-11-20T16:57:36.238Z,2.12
2018-11-20T17:00:26.566Z,2.20
2018-11-20T17:03:28.569Z,2.23
2018-11-20T17:06:18.009Z,2.21
2018-11-20T17:09:07.523Z,2.15
2018-11-20T17:11:55.665Z,2.10
2018-11-20T17:14:35.656Z,2.06
2018-11-20T17:17:26.395Z,1.91
2018-11-20T17:20:14.273Z,1.84
2018-11-20T17:23:09.602Z,1.86
2018-11-20T17:25:59.108Z,1.83
2018-11-20T17:28:54.313Z,1.79
2018-11-20T17:31:46.730Z,1.78
2018-11-20T17:34:42.074Z,1.43
2018-11-20T17:37:21.919Z,1.42
2018-11-20T17:40:21.063Z,1.35
2018-11-20T17:43:08.561Z,1.27
2018-11-20T17:46:10.016Z,1.20
2018-11-20T17:49:02.548Z,1.10
2018-11-20T17:52:00.491Z,1.06
2018-11-20T17:55:30.775Z,1.13
2018-11-20T17:58:14.362Z,0.93
2018-11-20T18:01:15.035Z,0.83
2018-11-20T18:04:02.255Z,0.62
2018-11-20T18:06:51.073Z,0.67
2018-11-20T18:09:43.046Z,0.67
2018-11-20T18:12:31.094Z,0.56
2018-11-20T18:15:19.263Z,0.46
2018-11-20T18:18:08.168Z,0.58
2018-11-20T18:20:55.097Z,0.51
2018-11-20T18:23:48.614Z,0.36
2018-11-20T18:26:35.561Z,0.44
2018-11-20T18:29:22.782Z,0.33
2018-11-20T18:32:13.416Z,0.27
2018-11-20T18:35:00.006Z,0.29
2018-11-20T18:38:03.390Z,0.32
2018-11-20T18:40:54.621Z,0.24
2018-11-20T18:43:44.265Z,0.18
2018-11-20T18:46:51.958Z,0.22
2018-11-20T18:49:52.153Z,0.25
2018-11-20T18:55:00.693Z,0.18
2018-11-20T18:57:55.128Z,0.07
2018-11-20T19:00:48.640Z,-0.01
2018-11-20T19:03:41.221Z,0.02
2018-11-20T19:06:44.316Z,0.14
2018-11-20T19:09:52.082Z,0.07
2018-11-20T19:12:52.353Z,-0.02
2018-11-20T19:16:00.228Z,-0.19
2018-11-20T19:19:00.700Z,-0.17
2018-11-20T19:22:09.070Z,-0.28
2018-11-20T19:25:09.920Z,-0.57
2018-11-20T19:28:17.599Z,-0.14
2018-11-20T19:31:22.436Z,-0.57
2018-11-20T19:34:31.160Z,-0.44
2018-11-20T19:37:31.650Z,-0.40
2018-11-20T19:40:39.386Z,-0.39
2018-11-20T19:43:45.633Z,-0.35
2018-11-20T19:47:15.213Z,-0.51
2018-11-20T19:53:12.750Z,-0.62
2018-11-20T19:56:20.520Z,-0.72
2018-11-20T19:59:21.152Z,-0.76
2018-11-20T20:02:36.600Z,-0.85
2018-11-20T20:05:36.515Z,-1.14
2018-11-20T20:08:44.350Z,-0.91
2018-11-20T20:11:32.913Z,-0.82
2018-11-20T20:18:07.605Z,-0.92
2018-11-20T20:21:05.196Z,-0.91
2018-11-20T20:23:47.605Z,-0.98
2018-11-20T20:26:35.410Z,-1.05
2018-11-20T20:32:31.198Z,-0.90
2018-11-20T20:35:22.861Z,-0.95
2018-11-20T20:38:29.653Z,-1.02
2018-11-20T20:41:21.934Z,-1.10
2018-11-20T20:44:10.032Z,-0.94
2018-11-20T20:47:08.430Z,-1.01
2018-11-20T20:50:03.128Z,-1.09
2018-11-20T20:52:57.682Z,-0.96
2018-11-20T20:55:55.473Z,-0.91
2018-11-20T20:58:46.124Z,-1.01
2018-11-20T21:01:32.475Z,-1.10
2018-11-20T21:04:15.066Z,-1.14
2018-11-20T21:07:32.443Z,-1.08
2018-11-20T21:10:18.918Z,-1.18
2018-11-20T21:13:05.593Z,-1.14
2018-11-20T21:15:54.316Z,-1.17
2018-11-20T21:18:54.856Z,-1.00
2018-11-20T21:22:08.527Z,-0.91
2018-11-20T21:25:02.860Z,-0.91
2018-11-20T21:28:00.335Z,-0.87
2018-11-20T21:30:47.460Z,-0.90
2018-11-20T21:33:52.051Z,-0.74
2018-11-20T21:36:40.647Z,-0.80
2018-11-20T21:39:33.411Z,-0.80
2018-11-20T21:42:31.667Z,-0.87
2018-11-20T21:45:22.175Z,-0.74
2018-11-20T21:48:16.819Z,-0.94
2018-11-20T21:51:08.322Z,-1.07
2018-11-20T21:53:53.917Z,-1.25
2018-11-20T21:56:42.293Z,-1.41
2018-11-20T21:59:48.447Z,-1.49
2018-11-20T22:02:38.033Z,-1.35
2018-11-20T22:05:20.465Z,-1.26
2018-11-20T22:08:15.423Z,-1.26
2018-11-20T22:11:08.732Z,-1.05
2018-11-20T22:14:08.358Z,-1.00
2018-11-20T22:16:55.442Z,-0.92
2018-11-20T22:20:06.799Z,-0.92
2018-11-20T22:23:08.690Z,-0.85
2018-11-20T22:25:55.543Z,-0.88
2018-11-20T22:28:42.307Z,-0.92
2018-11-20T22:31:29.005Z,-0.94
2018-11-20T22:34:25.245Z,-1.10
2018-11-20T22:37:38.831Z,-1.16
2018-11-20T22:40:27.947Z,-1.32
2018-11-20T22:43:22.223Z,-1.40
2018-11-20T22:46:14.430Z,-1.40
2018-11-20T22:49:06.497Z,-1.50
2018-11-20T22:51:53.684Z,-1.48
2018-11-20T22:54:53.552Z,-1.57
2018-11-20T22:58:05.530Z,-1.61
2018-11-20T23:00:52.089Z,-1.57
2018-11-20T23:03:39.746Z,-1.58
2018-11-20T23:06:39.814Z,-1.61
2018-11-20T23:09:13.180Z,-1.62
2018-11-20T23:11:42.594Z,-1.71
2018-11-20T23:14:16.080Z,-1.80
2018-11-20T23:16:46.133Z,-1.73
2018-11-20T23:19:15.702Z,-1.71
2018-11-20T23:21:45.204Z,-1.76
2018-11-20T23:24:15.965Z,-1.85
2018-11-20T23:26:46.106Z,-1.84
2018-11-20T23:29:15.719Z,-1.89
2018-11-20T23:31:49.352Z,-1.84
2018-11-20T23:34:18.864Z,-1.85
2018-11-20T23:36:48.626Z,-1.75
2018-11-20T23:39:18.303Z,-1.86
2018-11-20T23:41:47.711Z,-1.80
2018-11-20T23:44:17.126Z,-1.84
2018-11-20T23:46:46.769Z,-1.86
2018-11-20T23:49:16.345Z,-2.02
2018-11-20T23:51:45.728Z,-1.88
2018-11-20T23:54:15.440Z,-1.96
2018-11-20T23:56:44.870Z,-1.92
2018-11-20T23:59:14.562Z,-2.02
